Time;durP1;ratioP1;P1;durP2;ratioP2;P2;SDS_P1;SDS_P2;PMS_P1;PMS_P2;Temp;Humidity;BMP_temperature;BMP_pressure;BME280_temperature;BME280_humidity;BME280_pressure;Samples;Min_cycle;Max_cycle;Signal;HPM_P1;HPM_P2
2023/05/12 00:01:56;;;;;;;18.60;4.03;;;17.00;90.10;;;;;;7384036;19;20006;-75
2023/05/12 00:04:25;;;;;;;12.43;4.00;;;17.00;90.00;;;;;;7381936;19;20010;-75
2023/05/12 00:06:54;;;;;;;10.27;3.78;;;17.10;90.10;;;;;;7407330;19;20002;-75
2023/05/12 00:09:23;;;;;;;9.23;3.30;;;17.10;89.70;;;;;;7384645;19;20244;-74
2023/05/12 00:11:51;;;;;;;12.65;4.25;;;17.10;89.80;;;;;;7384985;19;20016;-74
2023/05/12 00:14:21;;;;;;;10.35;3.63;;;17.00;89.80;;;;;;7386136;19;20010;-75
2023/05/12 00:16:52;;;;;;;11.55;3.58;;;17.00;89.80;;;;;;7388163;19;20015;-74
2023/05/12 00:19:21;;;;;;;;;;;17.00;89.40;;;;;;7387087;19;20006;-74
2023/05/12 00:21:50;;;;;;;11.43;3.85;;;17.10;89.90;;;;;;7409075;19;19914;-75
2023/05/12 00:24:19;;;;;;;11.77;3.20;;;17.10;89.80;;;;;;7383773;19;19999;-75
2023/05/12 00:26:47;;;;;;;10.02;3.17;;;17.00;89.80;;;;;;7384832;19;20244;-75
2023/05/12 00:29:16;;;;;;;14.35;3.90;;;17.00;89.70;;;;;;7383610;19;20389;-74
2023/05/12 00:31:45;;;;;;;10.18;3.35;;;17.00;89.60;;;;;;7383715;19;20016;-75
2023/05/12 00:34:16;;;;;;;13.77;3.35;;;17.00;89.30;;;;;;7387478;19;20357;-75
2023/05/12 00:36:45;;;;;;;11.07;3.63;;;16.90;88.50;;;;;;7407545;19;20010;-74
2023/05/12 00:39:13;;;;;;;9.57;3.30;;;16.80;88.80;;;;;;7385210;19;20003;-74
2023/05/12 00:41:42;;;;;;;10.85;3.75;;;16.80;88.00;;;;;;7384436;19;20014;-74
2023/05/12 00:44:11;;;;;;;14.55;3.60;;;16.80;88.20;;;;;;7383295;19;20010;-75
2023/05/12 00:46:40;;;;;;;11.27;3.40;;;16.80;87.90;;;;;;7384444;19;20002;-75
2023/05/12 00:49:09;;;;;;;13.55;3.22;;;16.80;88.00;;;;;;7382162;19;20003;-75
2023/05/12 00:51:42;;;;;;;7.57;3.00;;;16.80;88.20;;;;;;7403142;19;20234;-75
2023/05/12 00:54:11;;;;;;;6.35;2.85;;;16.80;88.10;;;;;;7382967;19;20023;-74
2023/05/12 00:56:40;;;;;;;9.77;3.45;;;16.70;87.50;;;;;;7384304;19;20015;-75
2023/05/12 00:59:09;;;;;;;13.07;3.10;;;16.70;87.00;;;;;;7381975;19;20083;-75
2023/05/12 01:01:38;;;;;;;9.48;2.85;;;16.80;87.90;;;;;;7383590;19;20238;-75
2023/05/12 01:04:07;;;;;;;7.43;2.90;;;16.80;87.20;;;;;;7397036;19;20010;-75
2023/05/12 01:06:45;;;;;;;16.20;3.42;;;16.80;86.60;;;;;;7405543;19;20122;-74
2023/05/12 01:09:15;;;;;;;7.25;2.70;;;16.80;86.10;;;;;;7382610;19;20002;-75
2023/05/12 01:11:43;;;;;;;10.00;2.70;;;16.90;86.50;;;;;;7383447;19;20020;-74
2023/05/12 01:14:12;;;;;;;12.07;2.47;;;16.80;86.10;;;;;;7383197;19;20003;-74
2023/05/12 01:16:51;;;;;;;8.50;2.80;;;16.90;86.00;;;;;;7383841;19;20006;-75
2023/05/12 01:19:37;;;;;;;12.48;2.67;;;16.80;85.70;;;;;;7383256;19;20059;-74
2023/05/12 01:22:08;;;;;;;10.77;2.75;;;16.80;85.50;;;;;;7406300;19;20014;-75
2023/05/12 01:24:46;;;;;;;12.40;2.65;;;16.90;85.50;;;;;;7385556;19;19999;-74
2023/05/12 01:27:18;;;;;;;15.52;3.30;;;16.80;85.10;;;;;;7386217;19;20007;-74
2023/05/12 01:29:48;;;;;;;8.63;2.33;;;16.80;84.80;;;;;;7385495;19;19999;-74
2023/05/12 01:32:17;;;;;;;10.20;3.17;;;16.80;85.10;;;;;;7384180;19;20303;-75
2023/05/12 01:34:46;;;;;;;7.35;2.63;;;16.90;85.70;;;;;;7381394;19;20167;-75
2023/05/12 01:37:15;;;;;;;14.73;2.72;;;17.00;85.60;;;;;;7381558;19;20002;-75
2023/05/12 01:39:44;;;;;;;15.48;2.60;;;16.90;85.00;;;;;;7404080;19;20007;-75
2023/05/12 01:42:13;;;;;;;6.88;2.72;;;16.90;84.50;;;;;;7383088;19;20364;-75
2023/05/12 01:44:45;;;;;;;10.50;3.15;;;16.90;84.50;;;;;;7392835;19;20016;-74
2023/05/12 01:47:14;;;;;;;15.85;2.47;;;16.80;84.50;;;;;;7392467;19;20035;-74
2023/05/12 01:49:43;;;;;;;9.85;2.60;;;16.80;84.80;;;;;;7390537;19;20135;-74
2023/05/12 01:52:11;;;;;;;10.77;2.40;;;16.80;85.20;;;;;;7390349;19;20015;-74
2023/05/12 01:54:40;;;;;;;9.00;2.97;;;16.80;85.80;;;;;;7413503;19;20011;-74
2023/05/12 01:57:09;;;;;;;11.13;2.50;;;16.80;84.50;;;;;;7391161;19;20035;-74
2023/05/12 01:59:38;;;;;;;8.38;2.70;;;16.80;83.90;;;;;;7389792;19;20002;-74
2023/05/12 02:02:11;;;;;;;10.23;2.47;;;16.80;84.20;;;;;;7391636;19;20009;-74
2023/05/12 02:04:39;;;;;;;9.63;2.75;;;16.80;84.10;;;;;;7391544;19;20022;-74
2023/05/12 02:07:08;;;;;;;13.77;2.60;;;16.80;83.70;;;;;;7389362;19;20003;-74
2023/05/12 02:09:37;;;;;;;8.73;2.03;;;16.70;83.90;;;;;;7404110;19;20014;-74
2023/05/12 02:12:06;;;;;;;16.67;2.42;;;16.80;84.10;;;;;;7380755;19;20002;-74
2023/05/12 02:14:35;;;;;;;12.10;2.60;;;16.70;83.70;;;;;;7381921;19;20002;-74
2023/05/12 02:17:04;;;;;;;10.02;2.28;;;16.70;83.90;;;;;;7383526;19;20380;-74
2023/05/12 02:19:35;;;;;;;10.30;2.63;;;16.70;83.70;;;;;;7382148;19;20011;-74
2023/05/12 02:22:04;;;;;;;5.90;2.28;;;16.60;83.90;;;;;;7403251;19;20015;-75
2023/05/12 02:24:33;;;;;;;19.58;3.03;;;16.70;83.20;;;;;;7381536;19;20006;-75
2023/05/12 02:27:01;;;;;;;6.93;2.15;;;16.60;83.20;;;;;;7380150;19;20003;-74
2023/05/12 02:29:30;;;;;;;18.35;2.88;;;16.70;83.70;;;;;;7383971;19;20064;-74
2023/05/12 02:31:59;;;;;;;7.05;2.40;;;16.60;83.40;;;;;;7381620;19;20370;-74
2023/05/12 02:34:28;;;;;;;8.93;2.53;;;16.60;83.50;;;;;;7385676;19;19996;-75
2023/05/12 02:36:59;;;;;;;10.07;2.40;;;16.60;83.00;;;;;;7405597;19;20014;-75
2023/05/12 02:39:27;;;;;;;;;;;16.40;83.10;;;;;;7383942;19;20233;-75
2023/05/12 02:41:56;;;;;;;21.83;2.90;;;16.50;83.30;;;;;;7383320;19;19928;-75
2023/05/12 02:44:25;;;;;;;13.48;3.20;;;16.50;83.30;;;;;;7381255;19;20247;-74
2023/05/12 02:46:54;;;;;;;9.32;2.38;;;16.50;83.30;;;;;;7381153;19;20003;-75
2023/05/12 02:49:22;;;;;;;10.10;3.08;;;16.40;83.40;;;;;;7379365;19;20010;-74
2023/05/12 02:51:51;;;;;;;9.77;3.00;;;16.30;83.60;;;;;;7402715;19;20006;-74
2023/05/12 02:54:22;;;;;;;14.48;2.50;;;16.30;83.70;;;;;;7383041;19;20006;-74
2023/05/12 02:56:52;;;;;;;13.00;2.58;;;16.20;83.80;;;;;;7382143;19;20010;-74
2023/05/12 02:59:20;;;;;;;9.45;2.65;;;16.10;84.00;;;;;;7383230;19;20010;-74
2023/05/12 03:01:49;;;;;;;10.50;2.67;;;16.00;84.20;;;;;;7379709;19;20016;-74
2023/05/12 03:04:18;;;;;;;12.23;2.33;;;16.00;84.30;;;;;;7377948;19;20382;-74
2023/05/12 03:06:46;;;;;;;11.55;3.20;;;15.80;84.80;;;;;;7401803;19;20114;-74
2023/05/12 03:09:15;;;;;;;9.35;2.80;;;15.80;85.00;;;;;;7379552;19;20020;-74
2023/05/12 03:11:46;;;;;;;10.15;2.70;;;15.60;85.10;;;;;;7379605;19;20003;-74
2023/05/12 03:14:15;;;;;;;11.45;2.38;;;15.70;85.50;;;;;;7379257;19;20003;-74
2023/05/12 03:16:44;;;;;;;9.55;2.50;;;15.70;85.50;;;;;;7380097;19;19999;-75
2023/05/12 03:19:12;;;;;;;11.95;2.22;;;15.80;85.50;;;;;;7377375;19;20024;-74
2023/05/12 03:21:41;;;;;;;12.02;2.95;;;15.90;85.30;;;;;;7399542;19;20028;-74
2023/05/12 03:24:10;;;;;;;18.58;2.85;;;15.90;85.30;;;;;;7378771;19;20070;-74
2023/05/12 03:26:39;;;;;;;8.38;2.50;;;16.00;85.40;;;;;;7379336;19;20079;-74
2023/05/12 03:29:11;;;;;;;10.30;2.28;;;16.10;85.40;;;;;;7379528;19;20003;-74
2023/05/12 03:31:39;;;;;;;11.40;2.60;;;16.00;85.30;;;;;;7379894;19;20430;-73
2023/05/12 03:34:08;;;;;;;9.25;2.53;;;16.00;85.40;;;;;;7383516;19;20020;-73
2023/05/12 03:36:37;;;;;;;13.52;2.53;;;16.00;85.50;;;;;;7401236;19;20010;-73
2023/05/12 03:39:07;;;;;;;10.40;2.53;;;16.10;85.50;;;;;;7385436;19;20023;-73
2023/05/12 03:41:36;;;;;;;7.03;2.20;;;16.10;85.40;;;;;;7385183;19;20024;-74
2023/05/12 03:44:07;;;;;;;13.73;2.67;;;16.00;85.30;;;;;;7387035;19;20006;-74
2023/05/12 03:46:38;;;;;;;9.40;2.67;;;16.10;85.30;;;;;;7387031;19;20256;-75
2023/05/12 03:49:08;;;;;;;13.88;2.65;;;16.10;85.40;;;;;;7409533;19;20219;-75
2023/05/12 03:51:37;;;;;;;16.13;2.75;;;16.10;86.40;;;;;;7411143;19;20055;-75
2023/05/12 03:54:08;;;;;;;13.70;2.80;;;16.10;85.50;;;;;;7385561;19;20008;-73
2023/05/12 03:56:37;;;;;;;;;;;16.00;85.80;;;;;;7386829;19;20090;-74
2023/05/12 03:59:05;;;;;;;16.45;3.17;;;16.10;85.40;;;;;;7386245;19;19916;-74
2023/05/12 04:01:34;;;;;;;7.82;2.28;;;16.10;86.20;;;;;;7384375;19;20014;-74
2023/05/12 04:04:06;;;;;;;12.63;2.75;;;16.00;85.70;;;;;;7408017;19;20006;-74
2023/05/12 04:06:35;;;;;;;15.50;2.72;;;16.00;85.80;;;;;;7388139;19;20010;-74
2023/05/12 04:09:04;;;;;;;13.65;2.60;;;15.90;85.60;;;;;;7388177;19;20007;-74
2023/05/12 04:11:33;;;;;;;11.60;2.42;;;15.90;85.30;;;;;;7387855;19;20020;-74
2023/05/12 04:14:01;;;;;;;9.48;2.58;;;15.90;85.30;;;;;;7385964;19;20015;-74
2023/05/12 04:16:30;;;;;;;11.55;2.78;;;15.80;85.30;;;;;;7386183;19;20023;-75
2023/05/12 04:18:59;;;;;;;11.90;2.72;;;15.70;85.50;;;;;;7404615;19;20011;-75
2023/05/12 04:21:31;;;;;;;16.35;2.50;;;15.70;85.60;;;;;;7383514;19;20234;-75
2023/05/12 04:24:00;;;;;;;14.05;2.97;;;15.70;85.20;;;;;;7384789;19;20003;-75
2023/05/12 04:26:29;;;;;;;16.98;2.65;;;15.60;85.10;;;;;;7385637;19;20066;-74
2023/05/12 04:28:58;;;;;;;8.77;2.50;;;15.60;85.50;;;;;;7385166;19;20016;-76
2023/05/12 04:31:27;;;;;;;17.20;2.85;;;15.70;85.60;;;;;;7385391;19;20024;-74
2023/05/12 04:33:55;;;;;;;11.48;3.00;;;15.70;85.90;;;;;;7406210;19;20028;-74
2023/05/12 04:36:24;;;;;;;12.50;3.08;;;15.70;85.70;;;;;;7383970;19;20016;-74
2023/05/12 04:38:56;;;;;;;11.82;2.95;;;15.70;85.50;;;;;;7384287;19;20007;-74
2023/05/12 04:41:25;;;;;;;11.25;2.58;;;15.70;85.20;;;;;;7384539;19;20003;-74
2023/05/12 04:43:53;;;;;;;9.77;2.90;;;15.80;84.80;;;;;;7383160;19;20387;-74
2023/05/12 04:46:22;;;;;;;12.00;2.63;;;15.70;84.50;;;;;;7384948;19;20024;-76
2023/05/12 04:48:51;;;;;;;14.10;2.70;;;15.80;84.70;;;;;;7404899;19;20007;-74
2023/05/12 04:51:20;;;;;;;12.30;2.30;;;15.80;83.90;;;;;;7385838;19;20016;-74
2023/05/12 04:53:48;;;;;;;8.27;2.60;;;15.80;83.70;;;;;;7383846;19;20055;-74
2023/05/12 04:56:20;;;;;;;11.93;2.38;;;15.80;84.00;;;;;;7385164;19;20002;-75
2023/05/12 04:58:48;;;;;;;;;;;15.80;83.60;;;;;;7387218;19;20285;-74
2023/05/12 05:01:17;;;;;;;10.35;2.50;;;15.90;83.10;;;;;;7384400;19;19915;-74
2023/05/12 05:03:46;;;;;;;13.35;2.45;;;15.80;83.30;;;;;;7406664;19;20276;-74
2023/05/12 05:06:14;;;;;;;8.00;2.45;;;15.80;83.30;;;;;;7383568;19;19998;-74
2023/05/12 05:08:43;;;;;;;8.30;2.17;;;15.90;83.80;;;;;;7382910;19;20011;-74
2023/05/12 05:11:12;;;;;;;8.75;1.90;;;15.70;82.00;;;;;;7383586;19;20007;-74
2023/05/12 05:13:43;;;;;;;12.38;2.47;;;15.80;82.20;;;;;;7384333;19;20090;-74
2023/05/12 05:16:12;;;;;;;7.72;2.17;;;15.70;82.00;;;;;;7386244;19;20011;-74
2023/05/12 05:18:45;;;;;;;18.05;2.55;;;15.70;82.30;;;;;;7408339;19;20035;-74
2023/05/12 05:21:13;;;;;;;7.25;2.13;;;15.80;82.50;;;;;;7384451;19;20247;-74
2023/05/12 05:23:42;;;;;;;12.32;2.83;;;15.80;82.60;;;;;;7382933;19;20009;-74
2023/05/12 05:26:11;;;;;;;11.55;2.53;;;15.90;82.70;;;;;;7383295;19;20013;-74
2023/05/12 05:28:42;;;;;;;7.90;1.90;;;15.90;81.50;;;;;;7383854;19;20067;-74
2023/05/12 05:31:17;;;;;;;13.48;2.30;;;15.90;80.80;;;;;;7383433;19;20374;-74
2023/05/12 05:33:46;;;;;;;6.55;2.08;;;15.80;80.40;;;;;;7402787;19;20013;-74
2023/05/12 05:36:15;;;;;;;8.77;2.45;;;15.90;80.80;;;;;;7382620;19;20592;-73
2023/05/12 05:38:44;;;;;;;11.48;2.28;;;15.90;80.60;;;;;;7383050;19;20015;-74
2023/05/12 05:41:13;;;;;;;9.18;2.17;;;16.00;80.70;;;;;;7383495;19;20012;-73
2023/05/12 05:43:44;;;;;;;10.73;2.50;;;15.90;79.70;;;;;;7381904;19;20078;-73
2023/05/12 05:46:13;;;;;;;13.63;2.42;;;15.90;80.00;;;;;;7382572;19;20006;-74
2023/05/12 05:48:41;;;;;;;9.95;2.20;;;15.90;80.00;;;;;;7401801;19;20024;-73
2023/05/12 05:51:10;;;;;;;12.57;2.30;;;15.90;80.30;;;;;;7381444;19;20288;-73
2023/05/12 05:53:39;;;;;;;14.10;2.33;;;15.90;80.20;;;;;;7382224;19;20011;-75
2023/05/12 05:56:08;;;;;;;12.23;2.30;;;15.90;79.80;;;;;;7381621;19;20381;-74
2023/05/12 05:58:37;;;;;;;9.40;2.15;;;15.90;79.60;;;;;;7382530;19;20010;-75
2023/05/12 06:01:09;;;;;;;11.50;2.50;;;16.00;80.00;;;;;;7400950;19;20082;-73
2023/05/12 06:03:37;;;;;;;7.30;2.03;;;16.00;80.10;;;;;;7382024;19;20002;-75
2023/05/12 06:06:07;;;;;;;11.73;2.17;;;15.90;78.70;;;;;;7381724;19;20006;-76
2023/05/12 06:08:35;;;;;;;11.52;1.88;;;15.80;78.80;;;;;;7385439;19;20006;-74
2023/05/12 06:11:04;;;;;;;10.52;2.10;;;15.80;78.30;;;;;;7383622;19;20004;-75
2023/05/12 06:13:33;;;;;;;10.50;2.05;;;15.60;78.60;;;;;;7383406;19;20003;-74
2023/05/12 06:16:02;;;;;;;8.77;1.98;;;15.50;78.60;;;;;;7405118;19;20010;-73
2023/05/12 06:18:36;;;;;;;8.18;1.92;;;15.50;78.20;;;;;;7388561;19;20012;-75
2023/05/12 06:21:07;;;;;;;12.05;2.70;;;15.50;78.70;;;;;;7381224;19;20077;-75
2023/05/12 06:23:35;;;;;;;7.45;2.80;;;15.50;78.60;;;;;;7380274;19;20125;-75
2023/05/12 06:26:06;;;;;;;10.85;2.60;;;15.50;79.50;;;;;;7383024;19;20015;-74
2023/05/12 06:28:35;;;;;;;10.05;2.33;;;15.40;79.20;;;;;;7382679;19;20020;-74
2023/05/12 06:31:04;;;;;;;9.30;2.10;;;15.40;80.00;;;;;;7404777;19;20386;-76
2023/05/12 06:33:35;;;;;;;10.90;2.20;;;15.40;78.70;;;;;;7381267;19;20011;-74
2023/05/12 06:36:04;;;;;;;9.80;2.20;;;15.40;79.50;;;;;;7380613;19;20030;-74
2023/05/12 06:38:33;;;;;;;10.93;2.03;;;15.60;79.60;;;;;;7381363;19;20020;-76
2023/05/12 06:41:04;;;;;;;8.65;2.05;;;15.70;78.30;;;;;;7380330;19;20015;-74
2023/05/12 06:43:33;;;;;;;6.90;2.10;;;15.90;78.40;;;;;;7379769;19;20006;-73
2023/05/12 06:46:01;;;;;;;2.70;1.50;;;15.90;77.70;;;;;;7402479;19;20086;-75
2023/05/12 06:48:30;;;;;;;5.18;1.40;;;16.00;78.00;;;;;;7380758;19;20272;-73
2023/05/12 06:51:01;;;;;;;7.15;1.83;;;15.80;77.10;;;;;;7379928;19;20020;-74
2023/05/12 06:53:31;;;;;;;8.68;1.88;;;15.70;76.70;;;;;;7380841;19;20016;-74
2023/05/12 06:56:00;;;;;;;7.70;1.70;;;15.60;77.50;;;;;;7381297;19;20024;-74
2023/05/12 06:58:29;;;;;;;13.68;1.70;;;15.60;77.90;;;;;;7380690;19;20429;-73
2023/05/12 07:00:57;;;;;;;7.45;1.67;;;15.60;79.10;;;;;;7402089;19;20011;-74
2023/05/12 07:03:26;;;;;;;6.80;1.55;;;15.90;79.00;;;;;;7380112;19;20015;-75
2023/05/12 07:05:55;;;;;;;6.03;2.13;;;15.80;79.10;;;;;;7379741;19;20014;-74
2023/05/12 07:08:26;;;;;;;6.18;1.77;;;16.00;79.10;;;;;;7381512;19;20007;-75
2023/05/12 07:10:55;;;;;;;5.82;1.83;;;15.80;80.00;;;;;;7380246;19;20007;-74
2023/05/12 07:13:24;;;;;;;5.05;1.60;;;15.80;80.50;;;;;;7384210;19;20003;-73
2023/05/12 07:15:52;;;;;;;6.68;1.80;;;15.90;80.30;;;;;;7416391;19;20023;-73
2023/05/12 07:18:21;;;;;;;14.77;2.03;;;15.90;80.90;;;;;;7387542;19;20011;-73
2023/05/12 07:20:50;;;;;;;7.15;2.05;;;16.20;81.30;;;;;;7390216;19;19999;-73
2023/05/12 07:23:19;;;;;;;7.57;1.83;;;16.20;80.80;;;;;;7388473;19;20365;-73
2023/05/12 07:25:50;;;;;;;7.18;1.70;;;16.20;81.20;;;;;;7388426;19;20003;-74
2023/05/12 07:28:20;;;;;;;14.35;2.63;;;16.30;81.20;;;;;;7387062;19;20362;-74
2023/05/12 07:30:49;;;;;;;4.28;2.28;;;16.00;81.80;;;;;;7409402;19;20011;-73
2023/05/12 07:33:17;;;;;;;9.43;2.30;;;16.30;82.30;;;;;;7387864;19;19998;-73
2023/05/12 07:35:47;;;;;;;10.30;2.28;;;16.30;82.10;;;;;;7387292;19;20016;-73
2023/05/12 07:38:16;;;;;;;8.27;2.22;;;16.30;82.40;;;;;;7390623;19;20010;-73
2023/05/12 07:40:46;;;;;;;9.85;2.30;;;16.50;82.70;;;;;;7387497;19;20006;-73
2023/05/12 07:43:17;;;;;;;9.45;2.30;;;16.40;82.40;;;;;;7387210;19;20100;-73
2023/05/12 07:45:46;;;;;;;10.30;2.40;;;16.40;82.50;;;;;;7409607;19;20013;-74
2023/05/12 07:48:17;;;;;;;7.47;1.90;;;16.20;83.10;;;;;;7386354;19;20006;-74
2023/05/12 07:50:46;;;;;;;8.13;2.47;;;16.40;83.10;;;;;;7386248;19;20223;-74
2023/05/12 07:53:14;;;;;;;6.85;1.70;;;16.60;83.00;;;;;;7385937;19;20272;-74
2023/05/12 07:55:43;;;;;;;8.70;1.73;;;16.60;82.70;;;;;;7385873;19;20316;-74
2023/05/12 07:58:12;;;;;;;7.85;2.15;;;16.50;83.10;;;;;;7386282;19;20023;-74
2023/05/12 08:00:43;;;;;;;7.90;1.75;;;16.30;82.70;;;;;;7406942;19;20013;-74
2023/05/12 08:03:12;;;;;;;6.18;1.67;;;16.70;82.90;;;;;;7385162;19;20006;-74
2023/05/12 08:05:41;;;;;;;5.18;1.45;;;16.80;82.50;;;;;;7385296;19;20366;-73
2023/05/12 08:08:15;;;;;;;5.90;1.73;;;16.80;81.60;;;;;;7385730;19;20040;-73
2023/05/12 08:10:44;;;;;;;4.80;1.65;;;16.90;80.90;;;;;;7386060;19;20031;-73
2023/05/12 08:13:12;;;;;;;8.85;1.80;;;16.80;81.10;;;;;;7384769;19;20260;-73
2023/05/12 08:15:45;;;;;;;6.25;1.67;;;16.70;81.90;;;;;;7404119;19;20248;-73
2023/05/12 08:18:13;;;;;;;4.22;1.88;;;16.70;81.10;;;;;;7384210;19;20007;-73
2023/05/12 08:20:42;;;;;;;4.75;1.50;;;16.50;81.00;;;;;;7384741;19;20002;-73
2023/05/12 08:23:11;;;;;;;8.23;1.60;;;16.60;81.90;;;;;;7382554;19;20023;-73
2023/05/12 08:25:40;;;;;;;4.80;1.70;;;16.70;81.60;;;;;;7383216;19;20247;-73
2023/05/12 08:28:09;;;;;;;5.63;1.88;;;16.80;81.80;;;;;;7384844;19;20362;-73
2023/05/12 08:30:38;;;;;;;4.47;1.55;;;17.00;81.90;;;;;;7404573;19;20023;-73
2023/05/12 08:33:09;;;;;;;6.22;1.77;;;17.00;81.30;;;;;;7386177;19;20011;-73
2023/05/12 08:35:38;;;;;;;5.20;1.63;;;17.10;82.00;;;;;;7387961;19;20019;-73
2023/05/12 08:38:07;;;;;;;5.85;1.92;;;17.30;81.90;;;;;;7387494;19;20297;-73
2023/05/12 08:40:43;;;;;;;8.25;2.20;;;17.30;81.60;;;;;;7384125;19;20247;-74
2023/05/12 08:43:19;;;;;;;7.13;1.80;;;17.40;81.30;;;;;;7381790;19;20023;-74
2023/05/12 08:45:48;;;;;;;6.45;1.58;;;17.50;81.30;;;;;;7406230;19;20006;-73
2023/05/12 08:48:21;;;;;;;6.15;1.65;;;17.60;81.20;;;;;;7383395;19;20002;-74
2023/05/12 08:50:52;;;;;;;7.07;1.83;;;17.40;81.30;;;;;;7386370;19;20397;-74
2023/05/12 08:53:22;;;;;;;;;;;17.60;81.30;;;;;;7388042;19;20023;-74
2023/05/12 08:55:51;;;;;;;8.07;1.85;;;17.60;82.10;;;;;;7386424;19;19914;-74
2023/05/12 08:58:20;;;;;;;11.48;2.58;;;17.60;81.80;;;;;;7384671;19;20070;-74
2023/05/12 09:00:49;;;;;;;8.82;2.35;;;17.50;81.60;;;;;;7405786;19;20006;-74
2023/05/12 09:03:23;;;;;;;7.20;2.80;;;17.50;82.50;;;;;;7381285;19;20010;-74
2023/05/12 09:05:52;;;;;;;6.47;2.15;;;17.40;82.50;;;;;;7384093;19;20010;-74
2023/05/12 09:08:20;;;;;;;8.25;2.35;;;17.20;83.20;;;;;;7388257;19;20020;-73
2023/05/12 09:10:51;;;;;;;6.88;2.30;;;17.30;83.60;;;;;;7389537;19;20007;-73
2023/05/12 09:13:25;;;;;;;7.93;2.50;;;17.30;83.40;;;;;;7388001;19;20006;-73
2023/05/12 09:15:57;;;;;;;10.20;2.72;;;17.00;84.70;;;;;;7405052;19;20011;-74
2023/05/12 09:18:33;;;;;;;10.70;3.00;;;17.20;85.30;;;;;;7382868;19;20006;-74
2023/05/12 09:21:02;;;;;;;10.10;3.50;;;17.10;85.80;;;;;;7383115;19;20095;-74
2023/05/12 09:23:31;;;;;;;7.75;3.60;;;17.00;88.10;;;;;;7380709;19;20002;-74
2023/05/12 09:26:03;;;;;;;8.35;4.00;;;16.90;88.80;;;;;;7381994;19;20063;-74
2023/05/12 09:28:38;;;;;;;8.05;3.80;;;16.60;90.00;;;;;;7382874;19;20015;-74
2023/05/12 09:31:17;;;;;;;11.98;4.13;;;16.70;90.30;;;;;;7396897;19;20011;-74
2023/05/12 09:33:49;;;;;;;15.25;4.35;;;16.70;90.70;;;;;;7404418;19;20006;-74
2023/05/12 09:36:20;;;;;;;15.75;4.05;;;17.00;90.90;;;;;;7381697;19;20007;-74
2023/05/12 09:39:03;;;;;;;12.98;4.63;;;17.20;91.00;;;;;;7382627;19;20376;-74
2023/05/12 09:41:31;;;;;;;14.63;4.65;;;17.00;90.60;;;;;;7383541;19;20031;-74
2023/05/12 09:44:01;;;;;;;14.55;5.05;;;17.10;90.80;;;;;;7381602;19;20006;-74
2023/05/12 09:46:30;;;;;;;14.90;5.07;;;17.00;90.60;;;;;;7382737;19;20007;-74
2023/05/12 09:49:02;;;;;;;11.98;5.03;;;16.90;90.40;;;;;;7402052;19;20031;-74
2023/05/12 09:51:32;;;;;;;15.52;4.75;;;16.80;90.90;;;;;;7381794;19;20062;-74
2023/05/12 09:54:01;;;;;;;12.20;5.50;;;16.90;91.00;;;;;;7382050;19;20027;-74
2023/05/12 09:56:32;;;;;;;14.68;6.35;;;16.80;91.30;;;;;;7381750;19;20103;-74
2023/05/12 09:59:01;;;;;;;;;;;16.90;91.30;;;;;;7381992;19;20040;-74
2023/05/12 10:01:30;;;;;;;17.20;6.22;;;17.00;91.40;;;;;;7380519;19;19915;-74
2023/05/12 10:04:02;;;;;;;18.95;7.00;;;16.70;91.40;;;;;;7404684;19;20276;-74
2023/05/12 10:06:35;;;;;;;15.15;7.30;;;16.80;91.70;;;;;;7381389;19;20006;-74
2023/05/12 10:09:11;;;;;;;18.27;8.65;;;16.70;92.00;;;;;;7381571;19;20216;-74
2023/05/12 10:11:40;;;;;;;19.05;9.05;;;16.50;92.50;;;;;;7381197;19;20066;-73
2023/05/12 10:14:10;;;;;;;18.02;9.02;;;16.30;92.60;;;;;;7381386;19;20003;-73
2023/05/12 10:16:39;;;;;;;16.55;8.23;;;16.50;93.20;;;;;;7380907;19;20003;-74
2023/05/12 10:19:12;;;;;;;16.33;7.28;;;16.50;93.10;;;;;;7385460;19;20011;-74
2023/05/12 10:21:42;;;;;;;14.73;7.85;;;16.40;93.10;;;;;;7402057;19;20426;-74
2023/05/12 10:24:11;;;;;;;13.35;7.55;;;16.70;93.20;;;;;;7378446;19;20335;-73
2023/05/12 10:26:40;;;;;;;10.68;5.75;;;16.80;93.20;;;;;;7381058;19;20002;-74
2023/05/12 10:29:10;;;;;;;10.48;5.63;;;16.80;92.60;;;;;;7379922;19;20006;-75
2023/05/12 10:31:40;;;;;;;13.32;5.68;;;16.50;92.30;;;;;;7380637;19;20003;-75
2023/05/12 10:34:19;;;;;;;11.10;5.45;;;16.50;92.60;;;;;;7382637;19;20011;-75
2023/05/12 10:36:49;;;;;;;9.65;5.53;;;16.70;92.90;;;;;;7400447;19;20003;-75
2023/05/12 10:39:18;;;;;;;9.45;4.78;;;16.90;92.00;;;;;;7380522;19;20006;-75
2023/05/12 10:41:47;;;;;;;9.70;5.32;;;16.80;91.90;;;;;;7380375;19;20231;-74
2023/05/12 10:44:16;;;;;;;10.18;5.43;;;17.00;91.90;;;;;;7379662;19;20007;-74
2023/05/12 10:46:44;;;;;;;13.30;5.60;;;17.30;92.50;;;;;;7379496;19;20002;-74
2023/05/12 10:49:16;;;;;;;8.90;5.13;;;17.50;92.10;;;;;;7379829;19;20020;-74
2023/05/12 10:51:50;;;;;;;9.45;4.80;;;17.60;91.80;;;;;;7399342;19;20719;-74
2023/05/12 10:54:23;;;;;;;7.80;4.68;;;17.60;91.20;;;;;;7379605;19;20007;-74
2023/05/12 10:56:52;;;;;;;11.32;5.22;;;17.70;91.60;;;;;;7379988;19;20052;-74
2023/05/12 10:59:22;;;;;;;10.00;4.50;;;17.80;91.30;;;;;;7381678;19;20011;-74
2023/05/12 11:02:05;;;;;;;7.10;4.28;;;17.90;90.80;;;;;;7380485;19;20019;-74
2023/05/12 11:04:49;;;;;;;9.38;3.97;;;18.10;90.50;;;;;;7380581;19;20006;-75
2023/05/12 11:07:21;;;;;;;7.05;3.22;;;18.20;90.20;;;;;;7380306;19;20007;-74
2023/05/12 11:09:50;;;;;;;10.93;3.78;;;18.10;87.40;;;;;;7401232;19;20020;-74
2023/05/12 11:12:19;;;;;;;8.30;3.60;;;18.20;87.70;;;;;;7379339;19;20242;-74
2023/05/12 11:14:48;;;;;;;8.95;3.95;;;18.30;86.90;;;;;;7379692;19;20070;-74
2023/05/12 11:17:17;;;;;;;9.10;3.95;;;18.40;87.50;;;;;;7378559;19;20007;-74
2023/05/12 11:19:51;;;;;;;9.63;4.25;;;18.50;87.70;;;;;;7379579;19;20011;-75
2023/05/12 11:22:21;;;;;;;7.57;3.83;;;18.70;88.20;;;;;;7379121;19;20015;-75
2023/05/12 11:24:51;;;;;;;6.53;3.40;;;18.60;85.50;;;;;;7398628;19;20020;-73
2023/05/12 11:27:21;;;;;;;7.95;3.50;;;18.60;85.80;;;;;;7378805;19;20053;-74
2023/05/12 11:29:58;;;;;;;9.32;3.63;;;18.50;86.50;;;;;;7378997;19;20082;-74
2023/05/12 11:32:27;;;;;;;10.80;3.78;;;18.60;85.40;;;;;;7379198;19;20069;-74
2023/05/12 11:35:08;;;;;;;8.73;3.28;;;18.60;85.70;;;;;;7379539;19;20042;-74
2023/05/12 11:37:39;;;;;;;9.18;4.40;;;18.60;85.00;;;;;;7377705;19;20007;-74
2023/05/12 11:40:18;;;;;;;8.02;3.40;;;18.80;86.50;;;;;;7390968;19;20071;-74
2023/05/12 11:42:50;;;;;;;9.00;3.45;;;18.60;82.80;;;;;;7400070;19;20020;-74
2023/05/12 11:45:24;;;;;;;8.05;3.00;;;18.70;84.50;;;;;;7378281;19;20010;-74
2023/05/12 11:47:53;;;;;;;8.82;3.25;;;18.80;85.20;;;;;;7378394;19;20007;-75
2023/05/12 11:50:26;;;;;;;9.82;3.30;;;18.80;84.10;;;;;;7378107;19;20105;-74
2023/05/12 11:52:55;;;;;;;5.28;3.08;;;18.90;83.70;;;;;;7378825;19;20027;-75
2023/05/12 11:55:25;;;;;;;10.63;3.10;;;18.90;83.10;;;;;;7379116;19;20302;-74
2023/05/12 11:57:59;;;;;;;6.25;2.60;;;18.70;82.10;;;;;;7397988;19;20062;-74
2023/05/12 12:00:32;;;;;;;6.40;2.80;;;18.70;82.50;;;;;;7386461;19;20005;-74
2023/05/12 12:03:12;;;;;;;8.80;2.70;;;18.70;82.20;;;;;;7385944;19;20374;-74
2023/05/12 12:05:45;;;;;;;5.70;2.70;;;18.70;82.60;;;;;;7390645;19;20011;-74
2023/05/12 12:08:15;;;;;;;8.10;2.85;;;18.40;82.10;;;;;;7389297;19;20006;-74
2023/05/12 12:10:46;;;;;;;8.35;2.42;;;18.30;82.30;;;;;;7384078;19;20225;-75
2023/05/12 12:13:15;;;;;;;9.65;2.25;;;18.30;82.60;;;;;;7385440;19;20010;-74
2023/05/12 12:15:43;;;;;;;8.25;2.33;;;18.40;83.50;;;;;;7406255;19;20334;-74
2023/05/12 12:18:12;;;;;;;5.47;2.55;;;18.00;82.40;;;;;;7384508;19;20007;-74
2023/05/12 12:20:43;;;;;;;10.95;2.40;;;17.70;83.00;;;;;;7385172;19;20010;-74
2023/05/12 12:23:12;;;;;;;4.50;2.60;;;17.80;83.90;;;;;;7383178;19;20031;-74
2023/05/12 12:25:42;;;;;;;6.50;2.20;;;17.80;84.10;;;;;;7382804;19;20456;-74
2023/05/12 12:28:11;;;;;;;4.95;2.47;;;17.90;84.30;;;;;;7383040;19;20007;-74
2023/05/12 12:30:39;;;;;;;5.18;2.38;;;17.90;83.60;;;;;;7403478;19;20297;-75
2023/05/12 12:33:08;;;;;;;6.15;2.42;;;18.10;83.30;;;;;;7383887;19;20066;-74
2023/05/12 12:35:37;;;;;;;7.60;2.85;;;18.00;83.60;;;;;;7383923;19;20010;-74
2023/05/12 12:38:08;;;;;;;9.50;2.53;;;17.80;83.40;;;;;;7384299;19;20019;-75
2023/05/12 12:40:37;;;;;;;6.35;2.28;;;17.90;84.10;;;;;;7384349;19;20106;-75
2023/05/12 12:43:05;;;;;;;12.27;3.20;;;17.70;84.90;;;;;;7406221;19;20008;-75
2023/05/12 12:45:35;;;;;;;12.07;3.00;;;17.70;85.20;;;;;;7383841;19;19999;-75
2023/05/12 12:48:05;;;;;;;6.68;2.97;;;17.70;85.70;;;;;;7383916;19;20091;-75
2023/05/12 12:50:34;;;;;;;6.05;3.20;;;17.70;86.40;;;;;;7384026;19;20114;-75
2023/05/12 12:53:03;;;;;;;10.20;4.60;;;17.50;88.70;;;;;;7386145;19;20282;-75
2023/05/12 12:55:34;;;;;;;11.18;4.70;;;17.30;90.20;;;;;;7382244;19;20011;-74
2023/05/12 12:58:03;;;;;;;10.70;4.85;;;16.90;90.90;;;;;;7403415;19;20287;-75